sensor_id;sensor_type;location;lat;lon;timestamp;P1;durP1;ratioP1;P2;durP2;ratioP2
28298;SDS011;15565;52.600;6.456;2022-08-19T00:02:12;4.63;;;2.10;;
28298;SDS011;15565;52.600;6.456;2022-08-19T00:04:59;3.15;;;1.83;;
28298;SDS011;15565;52.600;6.456;2022-08-19T00:07:46;3.78;;;2.25;;
28298;SDS011;15565;52.600;6.456;2022-08-19T00:10:34;6.33;;;2.60;;
28298;SDS011;15565;52.600;6.456;2022-08-19T00:13:20;3.50;;;2.10;;
28298;SDS011;15565;52.600;6.456;2022-08-19T00:16:07;2.60;;;1.97;;
28298;SDS011;15565;52.600;6.456;2022-08-19T00:18:55;2.80;;;1.77;;
28298;SDS011;15565;52.600;6.456;2022-08-19T00:21:42;4.00;;;2.28;;
28298;SDS011;15565;52.600;6.456;2022-08-19T00:24:29;3.25;;;1.85;;
28298;SDS011;15565;52.600;6.456;2022-08-19T00:27:16;4.60;;;1.90;;
28298;SDS011;15565;52.600;6.456;2022-08-19T00:30:10;2.70;;;2.00;;
28298;SDS011;15565;52.600;6.456;2022-08-19T00:32:58;2.88;;;1.65;;
28298;SDS011;15565;52.600;6.456;2022-08-19T00:35:46;4.27;;;2.20;;
28298;SDS011;15565;52.600;6.456;2022-08-19T00:38:40;3.50;;;1.85;;
28298;SDS011;15565;52.600;6.456;2022-08-19T00:41:28;5.40;;;2.65;;
28298;SDS011;15565;52.600;6.456;2022-08-19T00:44:16;3.92;;;1.75;;
28298;SDS011;15565;52.600;6.456;2022-08-19T00:47:06;3.13;;;2.33;;
28298;SDS011;15565;52.600;6.456;2022-08-19T00:49:58;8.25;;;2.83;;
28298;SDS011;15565;52.600;6.456;2022-08-19T00:52:48;3.47;;;2.05;;
28298;SDS011;15565;52.600;6.456;2022-08-19T00:55:37;4.28;;;2.63;;
28298;SDS011;15565;52.600;6.456;2022-08-19T00:58:26;3.23;;;2.30;;
28298;SDS011;15565;52.600;6.456;2022-08-19T01:01:15;5.03;;;2.50;;
28298;SDS011;15565;52.600;6.456;2022-08-19T01:04:02;2.78;;;2.47;;
28298;SDS011;15565;52.600;6.456;2022-08-19T01:06:48;4.22;;;2.38;;
28298;SDS011;15565;52.600;6.456;2022-08-19T01:09:37;6.18;;;2.50;;
28298;SDS011;15565;52.600;6.456;2022-08-19T01:12:24;2.72;;;2.33;;
28298;SDS011;15565;52.600;6.456;2022-08-19T01:15:11;5.68;;;3.10;;
28298;SDS011;15565;52.600;6.456;2022-08-19T01:17:59;3.53;;;2.40;;
28298;SDS011;15565;52.600;6.456;2022-08-19T01:20:46;7.07;;;2.38;;
28298;SDS011;15565;52.600;6.456;2022-08-19T01:23:35;6.05;;;2.42;;
28298;SDS011;15565;52.600;6.456;2022-08-19T01:26:30;4.50;;;2.72;;
28298;SDS011;15565;52.600;6.456;2022-08-19T01:29:17;4.47;;;2.40;;
28298;SDS011;15565;52.600;6.456;2022-08-19T01:32:05;3.70;;;2.50;;
28298;SDS011;15565;52.600;6.456;2022-08-19T01:35:12;3.72;;;2.80;;
28298;SDS011;15565;52.600;6.456;2022-08-19T01:38:02;3.85;;;2.65;;
28298;SDS011;15565;52.600;6.456;2022-08-19T01:40:54;3.75;;;2.20;;
28298;SDS011;15565;52.600;6.456;2022-08-19T01:43:42;5.18;;;3.17;;
28298;SDS011;15565;52.600;6.456;2022-08-19T01:46:50;3.33;;;2.30;;
28298;SDS011;15565;52.600;6.456;2022-08-19T01:49:38;4.25;;;2.33;;
28298;SDS011;15565;52.600;6.456;2022-08-19T01:52:25;3.70;;;2.65;;
28298;SDS011;15565;52.600;6.456;2022-08-19T01:55:13;4.55;;;2.55;;
28298;SDS011;15565;52.600;6.456;2022-08-19T01:58:02;3.65;;;2.50;;
28298;SDS011;15565;52.600;6.456;2022-08-19T02:00:50;7.22;;;2.92;;
28298;SDS011;15565;52.600;6.456;2022-08-19T02:03:36;4.20;;;2.43;;
28298;SDS011;15565;52.600;6.456;2022-08-19T02:06:23;4.10;;;2.60;;
28298;SDS011;15565;52.600;6.456;2022-08-19T02:09:10;3.15;;;2.33;;
28298;SDS011;15565;52.600;6.456;2022-08-19T02:11:57;4.60;;;1.80;;
28298;SDS011;15565;52.600;6.456;2022-08-19T02:14:45;4.53;;;3.08;;
28298;SDS011;15565;52.600;6.456;2022-08-19T02:17:32;3.97;;;2.55;;
28298;SDS011;15565;52.600;6.456;2022-08-19T02:20:19;7.40;;;2.60;;
28298;SDS011;15565;52.600;6.456;2022-08-19T02:23:07;3.70;;;2.28;;
28298;SDS011;15565;52.600;6.456;2022-08-19T02:26:00;3.95;;;2.42;;
28298;SDS011;15565;52.600;6.456;2022-08-19T02:28:46;4.20;;;2.85;;
28298;SDS011;15565;52.600;6.456;2022-08-19T02:31:34;3.10;;;2.00;;
28298;SDS011;15565;52.600;6.456;2022-08-19T02:34:21;3.92;;;2.42;;
28298;SDS011;15565;52.600;6.456;2022-08-19T02:37:09;4.30;;;2.45;;
28298;SDS011;15565;52.600;6.456;2022-08-19T02:40:19;3.60;;;2.45;;
28298;SDS011;15565;52.600;6.456;2022-08-19T02:43:07;6.13;;;2.97;;
28298;SDS011;15565;52.600;6.456;2022-08-19T02:45:54;3.78;;;2.45;;
28298;SDS011;15565;52.600;6.456;2022-08-19T02:48:42;3.88;;;2.75;;
28298;SDS011;15565;52.600;6.456;2022-08-19T02:51:30;3.25;;;2.22;;
28298;SDS011;15565;52.600;6.456;2022-08-19T02:54:17;5.90;;;3.00;;
28298;SDS011;15565;52.600;6.456;2022-08-19T02:57:04;3.05;;;2.03;;
28298;SDS011;15565;52.600;6.456;2022-08-19T02:59:53;4.65;;;2.75;;
28298;SDS011;15565;52.600;6.456;2022-08-19T03:02:40;4.70;;;3.13;;
28298;SDS011;15565;52.600;6.456;2022-08-19T03:05:28;4.93;;;2.42;;
28298;SDS011;15565;52.600;6.456;2022-08-19T03:08:35;3.95;;;2.67;;
28298;SDS011;15565;52.600;6.456;2022-08-19T03:11:24;3.80;;;2.50;;
28298;SDS011;15565;52.600;6.456;2022-08-19T03:14:11;4.10;;;2.40;;
28298;SDS011;15565;52.600;6.456;2022-08-19T03:16:59;5.05;;;3.28;;
28298;SDS011;15565;52.600;6.456;2022-08-19T03:19:49;3.92;;;2.33;;
28298;SDS011;15565;52.600;6.456;2022-08-19T03:22:37;4.07;;;2.67;;
28298;SDS011;15565;52.600;6.456;2022-08-19T03:25:24;4.70;;;2.72;;
28298;SDS011;15565;52.600;6.456;2022-08-19T03:28:11;5.05;;;3.15;;
28298;SDS011;15565;52.600;6.456;2022-08-19T03:30:59;5.20;;;3.42;;
28298;SDS011;15565;52.600;6.456;2022-08-19T03:33:47;5.28;;;2.53;;
28298;SDS011;15565;52.600;6.456;2022-08-19T03:36:35;3.70;;;2.38;;
28298;SDS011;15565;52.600;6.456;2022-08-19T03:39:24;5.15;;;3.10;;
28298;SDS011;15565;52.600;6.456;2022-08-19T03:42:11;4.47;;;2.63;;
28298;SDS011;15565;52.600;6.456;2022-08-19T03:45:18;5.03;;;3.33;;
28298;SDS011;15565;52.600;6.456;2022-08-19T03:48:05;5.03;;;2.72;;
28298;SDS011;15565;52.600;6.456;2022-08-19T03:50:52;3.95;;;3.25;;
28298;SDS011;15565;52.600;6.456;2022-08-19T03:53:39;6.30;;;2.83;;
28298;SDS011;15565;52.600;6.456;2022-08-19T03:56:28;5.13;;;3.43;;
28298;SDS011;15565;52.600;6.456;2022-08-19T03:59:16;4.05;;;2.78;;
28298;SDS011;15565;52.600;6.456;2022-08-19T04:02:05;6.63;;;3.85;;
28298;SDS011;15565;52.600;6.456;2022-08-19T04:04:54;7.80;;;3.25;;
28298;SDS011;15565;52.600;6.456;2022-08-19T04:07:41;4.70;;;2.80;;
28298;SDS011;15565;52.600;6.456;2022-08-19T04:10:27;4.45;;;2.70;;
28298;SDS011;15565;52.600;6.456;2022-08-19T04:13:16;4.97;;;3.38;;
28298;SDS011;15565;52.600;6.456;2022-08-19T04:16:04;4.43;;;2.83;;
28298;SDS011;15565;52.600;6.456;2022-08-19T04:18:51;5.95;;;2.58;;
28298;SDS011;15565;52.600;6.456;2022-08-19T04:21:38;3.83;;;2.53;;
28298;SDS011;15565;52.600;6.456;2022-08-19T04:24:25;4.50;;;3.20;;
28298;SDS011;15565;52.600;6.456;2022-08-19T04:27:11;4.40;;;2.88;;
28298;SDS011;15565;52.600;6.456;2022-08-19T04:29:59;5.38;;;2.95;;
28298;SDS011;15565;52.600;6.456;2022-08-19T04:32:46;4.80;;;3.13;;
28298;SDS011;15565;52.600;6.456;2022-08-19T04:35:34;4.43;;;3.08;;
28298;SDS011;15565;52.600;6.456;2022-08-19T04:38:22;5.07;;;3.25;;
28298;SDS011;15565;52.600;6.456;2022-08-19T04:41:08;4.77;;;2.87;;
28298;SDS011;15565;52.600;6.456;2022-08-19T04:44:13;5.82;;;3.50;;
28298;SDS011;15565;52.600;6.456;2022-08-19T04:47:04;10.45;;;3.55;;
28298;SDS011;15565;52.600;6.456;2022-08-19T04:49:55;5.97;;;3.08;;
28298;SDS011;15565;52.600;6.456;2022-08-19T04:52:42;4.53;;;3.10;;
28298;SDS011;15565;52.600;6.456;2022-08-19T04:55:28;4.70;;;2.92;;
28298;SDS011;15565;52.600;6.456;2022-08-19T04:58:22;6.82;;;4.03;;
28298;SDS011;15565;52.600;6.456;2022-08-19T05:01:09;5.53;;;3.35;;
28298;SDS011;15565;52.600;6.456;2022-08-19T05:03:59;5.03;;;3.15;;
28298;SDS011;15565;52.600;6.456;2022-08-19T05:06:48;5.55;;;2.92;;
28298;SDS011;15565;52.600;6.456;2022-08-19T05:09:43;4.35;;;3.08;;
28298;SDS011;15565;52.600;6.456;2022-08-19T05:12:42;6.20;;;3.13;;
28298;SDS011;15565;52.600;6.456;2022-08-19T05:15:29;8.80;;;3.17;;
28298;SDS011;15565;52.600;6.456;2022-08-19T05:18:16;5.70;;;2.75;;
28298;SDS011;15565;52.600;6.456;2022-08-19T05:21:22;5.63;;;2.97;;
28298;SDS011;15565;52.600;6.456;2022-08-19T05:24:28;3.78;;;2.70;;
28298;SDS011;15565;52.600;6.456;2022-08-19T05:27:17;6.23;;;3.33;;
28298;SDS011;15565;52.600;6.456;2022-08-19T05:30:05;5.40;;;2.90;;
28298;SDS011;15565;52.600;6.456;2022-08-19T05:32:51;4.50;;;2.67;;
28298;SDS011;15565;52.600;6.456;2022-08-19T05:35:40;4.95;;;3.03;;
28298;SDS011;15565;52.600;6.456;2022-08-19T05:38:30;4.68;;;2.85;;
28298;SDS011;15565;52.600;6.456;2022-08-19T05:41:17;5.50;;;3.30;;
28298;SDS011;15565;52.600;6.456;2022-08-19T05:44:04;6.05;;;3.42;;
28298;SDS011;15565;52.600;6.456;2022-08-19T05:46:53;5.15;;;3.35;;
28298;SDS011;15565;52.600;6.456;2022-08-19T05:49:41;8.27;;;4.05;;
28298;SDS011;15565;52.600;6.456;2022-08-19T05:52:27;7.43;;;3.92;;
28298;SDS011;15565;52.600;6.456;2022-08-19T05:55:17;6.90;;;3.67;;
28298;SDS011;15565;52.600;6.456;2022-08-19T05:58:04;6.13;;;3.80;;
28298;SDS011;15565;52.600;6.456;2022-08-19T06:00:52;6.53;;;4.10;;
28298;SDS011;15565;52.600;6.456;2022-08-19T06:03:39;7.00;;;3.88;;
28298;SDS011;15565;52.600;6.456;2022-08-19T06:06:26;6.97;;;4.13;;
28298;SDS011;15565;52.600;6.456;2022-08-19T06:09:13;6.43;;;3.83;;
28298;SDS011;15565;52.600;6.456;2022-08-19T06:12:01;5.05;;;3.17;;
28298;SDS011;15565;52.600;6.456;2022-08-19T06:14:49;7.18;;;4.60;;
28298;SDS011;15565;52.600;6.456;2022-08-19T06:17:45;7.90;;;4.53;;
28298;SDS011;15565;52.600;6.456;2022-08-19T06:20:32;8.23;;;3.75;;
28298;SDS011;15565;52.600;6.456;2022-08-19T06:23:38;5.45;;;3.22;;
28298;SDS011;15565;52.600;6.456;2022-08-19T06:26:26;8.00;;;3.63;;
28298;SDS011;15565;52.600;6.456;2022-08-19T06:29:15;7.10;;;4.13;;
28298;SDS011;15565;52.600;6.456;2022-08-19T06:32:07;7.07;;;3.83;;
28298;SDS011;15565;52.600;6.456;2022-08-19T06:34:55;6.97;;;3.55;;
28298;SDS011;15565;52.600;6.456;2022-08-19T06:37:42;6.32;;;3.55;;
28298;SDS011;15565;52.600;6.456;2022-08-19T06:40:29;6.53;;;3.90;;
28298;SDS011;15565;52.600;6.456;2022-08-19T06:43:16;5.88;;;3.88;;
28298;SDS011;15565;52.600;6.456;2022-08-19T06:46:08;6.60;;;3.92;;
28298;SDS011;15565;52.600;6.456;2022-08-19T06:48:58;6.28;;;2.95;;
28298;SDS011;15565;52.600;6.456;2022-08-19T06:51:47;6.05;;;3.47;;
28298;SDS011;15565;52.600;6.456;2022-08-19T06:54:35;7.00;;;4.03;;
28298;SDS011;15565;52.600;6.456;2022-08-19T06:57:40;6.10;;;3.50;;
28298;SDS011;15565;52.600;6.456;2022-08-19T07:00:30;5.97;;;4.25;;
28298;SDS011;15565;52.600;6.456;2022-08-19T07:03:19;6.63;;;3.60;;
28298;SDS011;15565;52.600;6.456;2022-08-19T07:06:06;6.88;;;3.88;;
28298;SDS011;15565;52.600;6.456;2022-08-19T07:09:15;7.50;;;3.85;;
28298;SDS011;15565;52.600;6.456;2022-08-19T07:12:02;6.55;;;4.10;;
28298;SDS011;15565;52.600;6.456;2022-08-19T07:14:50;7.30;;;4.15;;
28298;SDS011;15565;52.600;6.456;2022-08-19T07:17:38;8.18;;;4.63;;
28298;SDS011;15565;52.600;6.456;2022-08-19T07:20:27;7.07;;;3.72;;
28298;SDS011;15565;52.600;6.456;2022-08-19T07:23:14;7.97;;;4.13;;
28298;SDS011;15565;52.600;6.456;2022-08-19T07:26:04;7.83;;;4.57;;
28298;SDS011;15565;52.600;6.456;2022-08-19T07:28:52;7.27;;;4.80;;
28298;SDS011;15565;52.600;6.456;2022-08-19T07:31:39;7.18;;;4.20;;
28298;SDS011;15565;52.600;6.456;2022-08-19T07:34:28;8.93;;;4.03;;
28298;SDS011;15565;52.600;6.456;2022-08-19T07:37:16;8.30;;;4.45;;
28298;SDS011;15565;52.600;6.456;2022-08-19T07:40:03;6.90;;;4.32;;
28298;SDS011;15565;52.600;6.456;2022-08-19T07:42:51;8.95;;;5.10;;
28298;SDS011;15565;52.600;6.456;2022-08-19T07:45:38;8.73;;;4.72;;
28298;SDS011;15565;52.600;6.456;2022-08-19T07:48:25;8.45;;;4.38;;
28298;SDS011;15565;52.600;6.456;2022-08-19T07:51:14;7.50;;;4.47;;
28298;SDS011;15565;52.600;6.456;2022-08-19T07:54:22;6.95;;;3.90;;
28298;SDS011;15565;52.600;6.456;2022-08-19T07:57:09;6.95;;;4.28;;
28298;SDS011;15565;52.600;6.456;2022-08-19T07:59:56;10.07;;;5.20;;
28298;SDS011;15565;52.600;6.456;2022-08-19T08:02:43;12.98;;;5.97;;
28298;SDS011;15565;52.600;6.456;2022-08-19T08:05:31;7.38;;;4.63;;
28298;SDS011;15565;52.600;6.456;2022-08-19T08:08:35;8.35;;;4.18;;
28298;SDS011;15565;52.600;6.456;2022-08-19T08:11:44;5.88;;;3.85;;
28298;SDS011;15565;52.600;6.456;2022-08-19T08:14:34;6.60;;;4.43;;
28298;SDS011;15565;52.600;6.456;2022-08-19T08:17:28;7.63;;;4.85;;
28298;SDS011;15565;52.600;6.456;2022-08-19T08:20:33;8.77;;;4.70;;
28298;SDS011;15565;52.600;6.456;2022-08-19T08:23:20;7.55;;;4.55;;
28298;SDS011;15565;52.600;6.456;2022-08-19T08:26:11;9.20;;;5.85;;
28298;SDS011;15565;52.600;6.456;2022-08-19T08:29:01;9.55;;;5.15;;
28298;SDS011;15565;52.600;6.456;2022-08-19T08:31:57;12.20;;;6.55;;
28298;SDS011;15565;52.600;6.456;2022-08-19T08:34:44;8.87;;;5.37;;
28298;SDS011;15565;52.600;6.456;2022-08-19T08:37:36;12.30;;;6.35;;
28298;SDS011;15565;52.600;6.456;2022-08-19T08:40:23;9.77;;;5.95;;
28298;SDS011;15565;52.600;6.456;2022-08-19T08:43:17;10.93;;;6.03;;
28298;SDS011;15565;52.600;6.456;2022-08-19T08:46:07;12.52;;;6.25;;
28298;SDS011;15565;52.600;6.456;2022-08-19T08:48:57;15.40;;;6.20;;
28298;SDS011;15565;52.600;6.456;2022-08-19T08:51:46;9.73;;;5.43;;
28298;SDS011;15565;52.600;6.456;2022-08-19T08:54:45;10.38;;;6.78;;
28298;SDS011;15565;52.600;6.456;2022-08-19T08:57:49;11.23;;;5.57;;
28298;SDS011;15565;52.600;6.456;2022-08-19T09:00:41;11.77;;;6.13;;
28298;SDS011;15565;52.600;6.456;2022-08-19T09:03:31;9.38;;;5.90;;
28298;SDS011;15565;52.600;6.456;2022-08-19T09:06:20;11.70;;;6.38;;
28298;SDS011;15565;52.600;6.456;2022-08-19T09:09:12;10.30;;;5.63;;
28298;SDS011;15565;52.600;6.456;2022-08-19T09:12:04;11.48;;;6.25;;
28298;SDS011;15565;52.600;6.456;2022-08-19T09:14:56;11.05;;;5.80;;
28298;SDS011;15565;52.600;6.456;2022-08-19T09:17:44;7.07;;;4.50;;
28298;SDS011;15565;52.600;6.456;2022-08-19T09:20:35;9.38;;;5.50;;
28298;SDS011;15565;52.600;6.456;2022-08-19T09:23:27;8.50;;;5.07;;
28298;SDS011;15565;52.600;6.456;2022-08-19T09:26:14;8.07;;;4.53;;
28298;SDS011;15565;52.600;6.456;2022-08-19T09:29:03;8.07;;;5.47;;
28298;SDS011;15565;52.600;6.456;2022-08-19T09:31:52;13.55;;;6.03;;
28298;SDS011;15565;52.600;6.456;2022-08-19T09:34:39;8.93;;;5.30;;
28298;SDS011;15565;52.600;6.456;2022-08-19T09:37:30;10.07;;;6.13;;
28298;SDS011;15565;52.600;6.456;2022-08-19T09:40:17;12.15;;;6.05;;
28298;SDS011;15565;52.600;6.456;2022-08-19T09:43:08;7.70;;;5.30;;
28298;SDS011;15565;52.600;6.456;2022-08-19T09:45:57;12.95;;;6.05;;
28298;SDS011;15565;52.600;6.456;2022-08-19T09:48:45;9.63;;;5.03;;
28298;SDS011;15565;52.600;6.456;2022-08-19T09:51:33;10.43;;;5.68;;
28298;SDS011;15565;52.600;6.456;2022-08-19T09:54:22;8.55;;;5.30;;
28298;SDS011;15565;52.600;6.456;2022-08-19T09:57:09;10.57;;;5.57;;
28298;SDS011;15565;52.600;6.456;2022-08-19T09:59:56;12.02;;;5.97;;
28298;SDS011;15565;52.600;6.456;2022-08-19T10:02:44;6.68;;;4.30;;
28298;SDS011;15565;52.600;6.456;2022-08-19T10:05:30;9.52;;;5.25;;
28298;SDS011;15565;52.600;6.456;2022-08-19T10:08:39;10.57;;;6.03;;
28298;SDS011;15565;52.600;6.456;2022-08-19T10:11:36;8.43;;;5.05;;
28298;SDS011;15565;52.600;6.456;2022-08-19T10:14:26;9.40;;;5.07;;
28298;SDS011;15565;52.600;6.456;2022-08-19T10:17:12;10.13;;;5.50;;
28298;SDS011;15565;52.600;6.456;2022-08-19T10:20:06;7.55;;;4.28;;
28298;SDS011;15565;52.600;6.456;2022-08-19T10:22:54;9.38;;;5.75;;
28298;SDS011;15565;52.600;6.456;2022-08-19T10:25:41;7.85;;;4.65;;
28298;SDS011;15565;52.600;6.456;2022-08-19T10:28:30;8.93;;;5.00;;
28298;SDS011;15565;52.600;6.456;2022-08-19T10:31:17;11.32;;;4.47;;
28298;SDS011;15565;52.600;6.456;2022-08-19T10:34:25;8.60;;;4.68;;
28298;SDS011;15565;52.600;6.456;2022-08-19T10:37:12;15.18;;;4.88;;
28298;SDS011;15565;52.600;6.456;2022-08-19T10:40:08;9.23;;;4.90;;
28298;SDS011;15565;52.600;6.456;2022-08-19T10:42:56;9.40;;;5.95;;
28298;SDS011;15565;52.600;6.456;2022-08-19T10:45:48;9.80;;;4.80;;
28298;SDS011;15565;52.600;6.456;2022-08-19T10:48:36;7.30;;;5.38;;
28298;SDS011;15565;52.600;6.456;2022-08-19T10:51:25;7.75;;;4.07;;
28298;SDS011;15565;52.600;6.456;2022-08-19T10:54:33;10.23;;;4.95;;
28298;SDS011;15565;52.600;6.456;2022-08-19T10:57:37;6.57;;;4.45;;
28298;SDS011;15565;52.600;6.456;2022-08-19T11:00:51;7.80;;;4.88;;
28298;SDS011;15565;52.600;6.456;2022-08-19T11:03:39;6.18;;;4.47;;
28298;SDS011;15565;52.600;6.456;2022-08-19T11:06:26;9.02;;;5.82;;
28298;SDS011;15565;52.600;6.456;2022-08-19T11:09:14;9.38;;;5.15;;
28298;SDS011;15565;52.600;6.456;2022-08-19T11:12:01;7.17;;;5.20;;
28298;SDS011;15565;52.600;6.456;2022-08-19T11:14:49;7.70;;;5.28;;
28298;SDS011;15565;52.600;6.456;2022-08-19T11:17:37;11.37;;;5.47;;
28298;SDS011;15565;52.600;6.456;2022-08-19T11:20:26;9.15;;;6.50;;
28298;SDS011;15565;52.600;6.456;2022-08-19T11:23:15;13.45;;;7.13;;
28298;SDS011;15565;52.600;6.456;2022-08-19T11:26:02;16.60;;;7.50;;
28298;SDS011;15565;52.600;6.456;2022-08-19T11:28:49;12.20;;;6.80;;
28298;SDS011;15565;52.600;6.456;2022-08-19T11:31:39;11.82;;;7.88;;
28298;SDS011;15565;52.600;6.456;2022-08-19T11:34:27;9.00;;;6.68;;
28298;SDS011;15565;52.600;6.456;2022-08-19T11:37:15;8.10;;;5.93;;
28298;SDS011;15565;52.600;6.456;2022-08-19T11:40:02;10.73;;;6.30;;
28298;SDS011;15565;52.600;6.456;2022-08-19T11:42:49;9.98;;;6.93;;
28298;SDS011;15565;52.600;6.456;2022-08-19T11:45:42;10.77;;;6.85;;
28298;SDS011;15565;52.600;6.456;2022-08-19T11:48:29;9.57;;;5.68;;
28298;SDS011;15565;52.600;6.456;2022-08-19T11:51:17;10.82;;;6.72;;
28298;SDS011;15565;52.600;6.456;2022-08-19T11:54:05;10.43;;;6.63;;
28298;SDS011;15565;52.600;6.456;2022-08-19T11:56:52;11.68;;;7.40;;
28298;SDS011;15565;52.600;6.456;2022-08-19T11:59:41;12.30;;;7.50;;
28298;SDS011;15565;52.600;6.456;2022-08-19T12:02:27;10.85;;;7.13;;
28298;SDS011;15565;52.600;6.456;2022-08-19T12:05:14;12.70;;;7.55;;
28298;SDS011;15565;52.600;6.456;2022-08-19T12:08:02;10.40;;;7.50;;
28298;SDS011;15565;52.600;6.456;2022-08-19T12:10:49;10.17;;;6.37;;
28298;SDS011;15565;52.600;6.456;2022-08-19T12:13:36;12.20;;;7.07;;
28298;SDS011;15565;52.600;6.456;2022-08-19T12:16:24;12.15;;;6.82;;
28298;SDS011;15565;52.600;6.456;2022-08-19T12:19:12;12.70;;;6.70;;
28298;SDS011;15565;52.600;6.456;2022-08-19T12:22:06;11.52;;;6.53;;
28298;SDS011;15565;52.600;6.456;2022-08-19T12:24:53;9.98;;;6.22;;
28298;SDS011;15565;52.600;6.456;2022-08-19T12:27:40;10.05;;;6.10;;
28298;SDS011;15565;52.600;6.456;2022-08-19T12:30:37;9.40;;;5.45;;
28298;SDS011;15565;52.600;6.456;2022-08-19T12:33:24;10.38;;;7.07;;
28298;SDS011;15565;52.600;6.456;2022-08-19T12:36:13;9.37;;;5.77;;
28298;SDS011;15565;52.600;6.456;2022-08-19T12:39:00;13.13;;;5.93;;
28298;SDS011;15565;52.600;6.456;2022-08-19T12:41:49;8.37;;;5.53;;
28298;SDS011;15565;52.600;6.456;2022-08-19T12:44:41;12.02;;;5.82;;
28298;SDS011;15565;52.600;6.456;2022-08-19T12:47:28;10.63;;;5.28;;
28298;SDS011;15565;52.600;6.456;2022-08-19T12:50:16;8.82;;;5.25;;
28298;SDS011;15565;52.600;6.456;2022-08-19T12:53:04;8.90;;;5.70;;
28298;SDS011;15565;52.600;6.456;2022-08-19T12:55:54;8.90;;;5.15;;
28298;SDS011;15565;52.600;6.456;2022-08-19T12:58:42;8.98;;;4.95;;
28298;SDS011;15565;52.600;6.456;2022-08-19T13:01:34;8.40;;;4.82;;
28298;SDS011;15565;52.600;6.456;2022-08-19T13:04:21;7.18;;;4.18;;
28298;SDS011;15565;52.600;6.456;2022-08-19T13:07:08;10.25;;;5.15;;
28298;SDS011;15565;52.600;6.456;2022-08-19T13:09:54;9.23;;;6.22;;
28298;SDS011;15565;52.600;6.456;2022-08-19T13:12:42;9.38;;;5.30;;
28298;SDS011;15565;52.600;6.456;2022-08-19T13:15:32;7.43;;;4.22;;
28298;SDS011;15565;52.600;6.456;2022-08-19T13:18:19;5.70;;;3.58;;
28298;SDS011;15565;52.600;6.456;2022-08-19T13:21:07;12.20;;;4.05;;
28298;SDS011;15565;52.600;6.456;2022-08-19T13:23:56;9.40;;;4.72;;
28298;SDS011;15565;52.600;6.456;2022-08-19T13:26:43;10.13;;;5.10;;
28298;SDS011;15565;52.600;6.456;2022-08-19T13:29:30;14.60;;;6.55;;
28298;SDS011;15565;52.600;6.456;2022-08-19T13:32:36;8.13;;;5.13;;
28298;SDS011;15565;52.600;6.456;2022-08-19T13:35:40;8.07;;;5.32;;
28298;SDS011;15565;52.600;6.456;2022-08-19T13:38:28;8.90;;;5.18;;
28298;SDS011;15565;52.600;6.456;2022-08-19T13:41:15;14.13;;;5.45;;
28298;SDS011;15565;52.600;6.456;2022-08-19T13:44:04;5.75;;;2.72;;
28298;SDS011;15565;52.600;6.456;2022-08-19T13:46:51;4.88;;;2.80;;
28298;SDS011;15565;52.600;6.456;2022-08-19T13:49:40;4.33;;;2.40;;
28298;SDS011;15565;52.600;6.456;2022-08-19T13:52:27;6.32;;;2.97;;
28298;SDS011;15565;52.600;6.456;2022-08-19T13:55:14;3.20;;;1.75;;
28298;SDS011;15565;52.600;6.456;2022-08-19T13:58:09;2.17;;;1.90;;
28298;SDS011;15565;52.600;6.456;2022-08-19T14:00:56;3.08;;;2.00;;
28298;SDS011;15565;52.600;6.456;2022-08-19T14:03:43;2.40;;;1.80;;
28298;SDS011;15565;52.600;6.456;2022-08-19T14:06:32;7.55;;;3.08;;
28298;SDS011;15565;52.600;6.456;2022-08-19T14:09:19;6.43;;;2.37;;
28298;SDS011;15565;52.600;6.456;2022-08-19T14:12:06;3.37;;;2.00;;
28298;SDS011;15565;52.600;6.456;2022-08-19T14:14:53;4.32;;;3.00;;
28298;SDS011;15565;52.600;6.456;2022-08-19T14:17:40;8.60;;;4.70;;
28298;SDS011;15565;52.600;6.456;2022-08-19T14:20:27;6.97;;;3.47;;
28298;SDS011;15565;52.600;6.456;2022-08-19T14:23:15;11.73;;;6.80;;
28298;SDS011;15565;52.600;6.456;2022-08-19T14:26:03;9.63;;;4.82;;
28298;SDS011;15565;52.600;6.456;2022-08-19T14:28:50;12.20;;;5.55;;
28298;SDS011;15565;52.600;6.456;2022-08-19T14:31:37;7.60;;;3.83;;
28298;SDS011;15565;52.600;6.456;2022-08-19T14:34:27;5.10;;;3.55;;
28298;SDS011;15565;52.600;6.456;2022-08-19T14:37:16;5.00;;;4.20;;
28298;SDS011;15565;52.600;6.456;2022-08-19T14:40:05;6.97;;;4.55;;
28298;SDS011;15565;52.600;6.456;2022-08-19T14:42:52;8.32;;;5.10;;
28298;SDS011;15565;52.600;6.456;2022-08-19T14:45:40;9.20;;;5.28;;
28298;SDS011;15565;52.600;6.456;2022-08-19T14:48:28;10.13;;;6.50;;
28298;SDS011;15565;52.600;6.456;2022-08-19T14:51:15;11.15;;;6.47;;
28298;SDS011;15565;52.600;6.456;2022-08-19T14:54:01;10.63;;;7.22;;
28298;SDS011;15565;52.600;6.456;2022-08-19T14:56:50;13.38;;;8.02;;
28298;SDS011;15565;52.600;6.456;2022-08-19T14:59:37;14.77;;;6.60;;
28298;SDS011;15565;52.600;6.456;2022-08-19T15:02:23;14.02;;;7.53;;
28298;SDS011;15565;52.600;6.456;2022-08-19T15:05:19;14.80;;;7.78;;
28298;SDS011;15565;52.600;6.456;2022-08-19T15:08:06;14.55;;;7.93;;
28298;SDS011;15565;52.600;6.456;2022-08-19T15:10:53;17.60;;;8.00;;
28298;SDS011;15565;52.600;6.456;2022-08-19T15:13:42;15.52;;;7.55;;
28298;SDS011;15565;52.600;6.456;2022-08-19T15:16:31;16.10;;;7.55;;
28298;SDS011;15565;52.600;6.456;2022-08-19T15:19:18;14.13;;;7.38;;
28298;SDS011;15565;52.600;6.456;2022-08-19T15:22:05;14.67;;;7.23;;
28298;SDS011;15565;52.600;6.456;2022-08-19T15:24:52;15.00;;;7.13;;
28298;SDS011;15565;52.600;6.456;2022-08-19T15:27:40;16.40;;;6.28;;
28298;SDS011;15565;52.600;6.456;2022-08-19T15:30:29;12.18;;;6.55;;
28298;SDS011;15565;52.600;6.456;2022-08-19T15:33:18;12.57;;;6.72;;
28298;SDS011;15565;52.600;6.456;2022-08-19T15:36:05;15.63;;;7.13;;
28298;SDS011;15565;52.600;6.456;2022-08-19T15:38:54;14.35;;;8.13;;
28298;SDS011;15565;52.600;6.456;2022-08-19T15:41:40;11.45;;;7.57;;
28298;SDS011;15565;52.600;6.456;2022-08-19T15:44:29;15.45;;;7.35;;
28298;SDS011;15565;52.600;6.456;2022-08-19T15:47:17;11.82;;;7.10;;
28298;SDS011;15565;52.600;6.456;2022-08-19T15:50:05;9.85;;;6.40;;
28298;SDS011;15565;52.600;6.456;2022-08-19T15:52:55;10.10;;;5.37;;
28298;SDS011;15565;52.600;6.456;2022-08-19T15:55:43;12.05;;;5.22;;
28298;SDS011;15565;52.600;6.456;2022-08-19T15:58:32;13.15;;;6.03;;
28298;SDS011;15565;52.600;6.456;2022-08-19T16:01:37;10.87;;;6.30;;
28298;SDS011;15565;52.600;6.456;2022-08-19T16:04:43;8.25;;;5.00;;
28298;SDS011;15565;52.600;6.456;2022-08-19T16:07:47;8.67;;;5.23;;
28298;SDS011;15565;52.600;6.456;2022-08-19T16:10:35;9.48;;;5.03;;
28298;SDS011;15565;52.600;6.456;2022-08-19T16:13:22;10.30;;;5.85;;
28298;SDS011;15565;52.600;6.456;2022-08-19T16:16:09;11.77;;;6.70;;
28298;SDS011;15565;52.600;6.456;2022-08-19T16:18:55;11.55;;;5.60;;
28298;SDS011;15565;52.600;6.456;2022-08-19T16:21:45;12.88;;;5.90;;
28298;SDS011;15565;52.600;6.456;2022-08-19T16:24:32;9.68;;;5.70;;
28298;SDS011;15565;52.600;6.456;2022-08-19T16:27:19;10.30;;;5.03;;
28298;SDS011;15565;52.600;6.456;2022-08-19T16:30:07;7.40;;;3.65;;
28298;SDS011;15565;52.600;6.456;2022-08-19T16:32:54;9.97;;;4.57;;
28298;SDS011;15565;52.600;6.456;2022-08-19T16:35:41;7.30;;;3.22;;
28298;SDS011;15565;52.600;6.456;2022-08-19T16:38:37;4.93;;;2.83;;
28298;SDS011;15565;52.600;6.456;2022-08-19T16:41:24;4.55;;;2.70;;
28298;SDS011;15565;52.600;6.456;2022-08-19T16:44:12;6.32;;;4.00;;
28298;SDS011;15565;52.600;6.456;2022-08-19T16:46:59;5.30;;;3.00;;
28298;SDS011;15565;52.600;6.456;2022-08-19T16:49:46;5.82;;;3.53;;
28298;SDS011;15565;52.600;6.456;2022-08-19T16:52:38;3.92;;;2.53;;
28298;SDS011;15565;52.600;6.456;2022-08-19T16:55:27;2.80;;;2.15;;
28298;SDS011;15565;52.600;6.456;2022-08-19T16:58:14;3.97;;;2.80;;
28298;SDS011;15565;52.600;6.456;2022-08-19T17:01:02;4.50;;;2.38;;